sensor_id;sensor_type;location;lat;lon;timestamp;P1;durP1;ratioP1;P2;durP2;ratioP2
24259;SDS011;12384;48.112;18.418;2023-05-10T00:01:53;13.20;;;12.17;;
24259;SDS011;12384;48.112;18.418;2023-05-10T00:04:21;12.53;;;11.73;;
24259;SDS011;12384;48.112;18.418;2023-05-10T00:06:54;12.33;;;11.53;;
24259;SDS011;12384;48.112;18.418;2023-05-10T00:09:22;13.07;;;12.17;;
24259;SDS011;12384;48.112;18.418;2023-05-10T00:11:51;12.93;;;12.03;;
24259;SDS011;12384;48.112;18.418;2023-05-10T00:14:19;12.47;;;11.67;;
24259;SDS011;12384;48.112;18.418;2023-05-10T00:16:49;12.90;;;12.00;;
24259;SDS011;12384;48.112;18.418;2023-05-10T00:19:18;12.77;;;11.97;;
24259;SDS011;12384;48.112;18.418;2023-05-10T00:21:46;13.63;;;12.40;;
24259;SDS011;12384;48.112;18.418;2023-05-10T00:24:14;13.90;;;13.00;;
24259;SDS011;12384;48.112;18.418;2023-05-10T00:26:43;12.73;;;11.93;;
24259;SDS011;12384;48.112;18.418;2023-05-10T00:29:12;12.90;;;12.00;;
24259;SDS011;12384;48.112;18.418;2023-05-10T00:31:41;12.90;;;12.00;;
24259;SDS011;12384;48.112;18.418;2023-05-10T00:34:11;12.87;;;11.90;;
24259;SDS011;12384;48.112;18.418;2023-05-10T00:36:39;12.17;;;11.47;;
24259;SDS011;12384;48.112;18.418;2023-05-10T00:39:08;12.03;;;11.33;;
24259;SDS011;12384;48.112;18.418;2023-05-10T00:41:37;12.60;;;11.80;;
24259;SDS011;12384;48.112;18.418;2023-05-10T00:44:06;12.43;;;11.63;;
24259;SDS011;12384;48.112;18.418;2023-05-10T00:46:35;12.87;;;12.07;;
24259;SDS011;12384;48.112;18.418;2023-05-10T00:49:03;12.90;;;12.20;;
24259;SDS011;12384;48.112;18.418;2023-05-10T00:51:33;13.20;;;12.10;;
24259;SDS011;12384;48.112;18.418;2023-05-10T00:54:04;13.17;;;12.37;;
24259;SDS011;12384;48.112;18.418;2023-05-10T00:56:33;13.20;;;12.40;;
24259;SDS011;12384;48.112;18.418;2023-05-10T00:59:02;13.13;;;12.33;;
24259;SDS011;12384;48.112;18.418;2023-05-10T01:01:30;12.67;;;11.87;;
24259;SDS011;12384;48.112;18.418;2023-05-10T01:03:59;14.10;;;13.23;;
24259;SDS011;12384;48.112;18.418;2023-05-10T01:06:29;13.50;;;12.67;;
24259;SDS011;12384;48.112;18.418;2023-05-10T01:09:00;13.67;;;12.77;;
24259;SDS011;12384;48.112;18.418;2023-05-10T01:11:28;13.10;;;12.20;;
24259;SDS011;12384;48.112;18.418;2023-05-10T01:13:57;13.83;;;12.93;;
24259;SDS011;12384;48.112;18.418;2023-05-10T01:16:26;13.37;;;12.37;;
24259;SDS011;12384;48.112;18.418;2023-05-10T01:18:57;13.27;;;12.47;;
24259;SDS011;12384;48.112;18.418;2023-05-10T01:21:27;13.40;;;12.50;;
24259;SDS011;12384;48.112;18.418;2023-05-10T01:24:31;14.30;;;13.30;;
24259;SDS011;12384;48.112;18.418;2023-05-10T01:27:16;13.83;;;12.93;;
24259;SDS011;12384;48.112;18.418;2023-05-10T01:33:28;14.17;;;12.90;;
24259;SDS011;12384;48.112;18.418;2023-05-10T01:36:03;13.97;;;13.00;;
24259;SDS011;12384;48.112;18.418;2023-05-10T01:38:38;14.20;;;13.20;;
24259;SDS011;12384;48.112;18.418;2023-05-10T01:41:17;14.23;;;13.33;;
24259;SDS011;12384;48.112;18.418;2023-05-10T01:43:52;14.03;;;13.13;;
24259;SDS011;12384;48.112;18.418;2023-05-10T01:46:27;13.57;;;12.67;;
24259;SDS011;12384;48.112;18.418;2023-05-10T01:49:02;13.80;;;12.90;;
24259;SDS011;12384;48.112;18.418;2023-05-10T01:51:36;13.97;;;12.97;;
24259;SDS011;12384;48.112;18.418;2023-05-10T01:54:09;13.07;;;12.27;;
24259;SDS011;12384;48.112;18.418;2023-05-10T01:56:40;13.17;;;12.07;;
24259;SDS011;12384;48.112;18.418;2023-05-10T01:59:12;13.30;;;12.40;;
24259;SDS011;12384;48.112;18.418;2023-05-10T02:01:43;13.43;;;12.60;;
24259;SDS011;12384;48.112;18.418;2023-05-10T02:04:17;13.07;;;12.17;;
24259;SDS011;12384;48.112;18.418;2023-05-10T02:06:47;13.03;;;12.13;;
24259;SDS011;12384;48.112;18.418;2023-05-10T02:09:16;12.90;;;11.73;;
24259;SDS011;12384;48.112;18.418;2023-05-10T02:11:47;12.87;;;12.07;;
24259;SDS011;12384;48.112;18.418;2023-05-10T02:14:17;13.27;;;12.37;;
24259;SDS011;12384;48.112;18.418;2023-05-10T02:16:47;13.03;;;12.23;;
24259;SDS011;12384;48.112;18.418;2023-05-10T02:19:19;13.47;;;12.67;;
24259;SDS011;12384;48.112;18.418;2023-05-10T02:21:50;14.40;;;13.40;;
24259;SDS011;12384;48.112;18.418;2023-05-10T02:24:19;13.10;;;12.30;;
24259;SDS011;12384;48.112;18.418;2023-05-10T02:26:50;13.70;;;12.80;;
24259;SDS011;12384;48.112;18.418;2023-05-10T02:29:22;13.80;;;12.90;;
24259;SDS011;12384;48.112;18.418;2023-05-10T02:31:53;14.83;;;13.73;;
24259;SDS011;12384;48.112;18.418;2023-05-10T02:34:24;14.40;;;13.33;;
24259;SDS011;12384;48.112;18.418;2023-05-10T02:36:54;13.90;;;13.00;;
24259;SDS011;12384;48.112;18.418;2023-05-10T02:39:24;14.27;;;13.37;;
24259;SDS011;12384;48.112;18.418;2023-05-10T02:41:56;14.50;;;13.50;;
24259;SDS011;12384;48.112;18.418;2023-05-10T02:44:25;13.77;;;12.87;;
24259;SDS011;12384;48.112;18.418;2023-05-10T02:46:57;13.50;;;12.70;;
24259;SDS011;12384;48.112;18.418;2023-05-10T02:49:29;13.67;;;12.67;;
24259;SDS011;12384;48.112;18.418;2023-05-10T02:52:00;13.30;;;12.40;;
24259;SDS011;12384;48.112;18.418;2023-05-10T02:54:34;13.83;;;12.93;;
24259;SDS011;12384;48.112;18.418;2023-05-10T02:57:13;13.93;;;12.80;;
24259;SDS011;12384;48.112;18.418;2023-05-10T02:59:45;14.03;;;13.03;;
24259;SDS011;12384;48.112;18.418;2023-05-10T03:02:14;14.60;;;13.57;;
24259;SDS011;12384;48.112;18.418;2023-05-10T03:04:44;14.60;;;13.60;;
24259;SDS011;12384;48.112;18.418;2023-05-10T03:07:13;14.23;;;13.33;;
24259;SDS011;12384;48.112;18.418;2023-05-10T03:09:42;14.47;;;13.47;;
24259;SDS011;12384;48.112;18.418;2023-05-10T03:12:13;14.53;;;13.47;;
24259;SDS011;12384;48.112;18.418;2023-05-10T03:14:56;14.60;;;13.70;;
24259;SDS011;12384;48.112;18.418;2023-05-10T03:17:33;14.13;;;13.13;;
24259;SDS011;12384;48.112;18.418;2023-05-10T03:20:11;14.80;;;13.70;;
24259;SDS011;12384;48.112;18.418;2023-05-10T03:22:45;14.20;;;13.10;;
24259;SDS011;12384;48.112;18.418;2023-05-10T03:25:17;14.47;;;13.50;;
24259;SDS011;12384;48.112;18.418;2023-05-10T03:27:50;14.73;;;13.80;;
24259;SDS011;12384;48.112;18.418;2023-05-10T03:30:21;14.33;;;13.43;;
24259;SDS011;12384;48.112;18.418;2023-05-10T03:32:51;15.50;;;14.43;;
24259;SDS011;12384;48.112;18.418;2023-05-10T03:35:22;14.27;;;13.20;;
24259;SDS011;12384;48.112;18.418;2023-05-10T03:37:52;14.40;;;13.37;;
24259;SDS011;12384;48.112;18.418;2023-05-10T03:40:20;14.53;;;13.63;;
24259;SDS011;12384;48.112;18.418;2023-05-10T03:42:49;15.07;;;14.07;;
24259;SDS011;12384;48.112;18.418;2023-05-10T03:45:17;15.50;;;14.30;;
24259;SDS011;12384;48.112;18.418;2023-05-10T03:47:46;15.03;;;13.97;;
24259;SDS011;12384;48.112;18.418;2023-05-10T03:50:15;14.60;;;13.60;;
24259;SDS011;12384;48.112;18.418;2023-05-10T03:52:45;14.73;;;13.73;;
24259;SDS011;12384;48.112;18.418;2023-05-10T03:55:14;15.27;;;14.07;;
24259;SDS011;12384;48.112;18.418;2023-05-10T03:57:43;15.27;;;14.27;;
24259;SDS011;12384;48.112;18.418;2023-05-10T04:00:12;15.03;;;14.03;;
24259;SDS011;12384;48.112;18.418;2023-05-10T04:02:41;15.40;;;14.37;;
24259;SDS011;12384;48.112;18.418;2023-05-10T04:05:17;16.00;;;14.80;;
24259;SDS011;12384;48.112;18.418;2023-05-10T04:07:47;17.13;;;15.93;;
24259;SDS011;12384;48.112;18.418;2023-05-10T04:10:17;16.77;;;15.57;;
24259;SDS011;12384;48.112;18.418;2023-05-10T04:12:46;16.27;;;15.17;;
24259;SDS011;12384;48.112;18.418;2023-05-10T04:15:14;16.10;;;15.10;;
24259;SDS011;12384;48.112;18.418;2023-05-10T04:17:43;15.57;;;14.37;;
24259;SDS011;12384;48.112;18.418;2023-05-10T04:20:11;15.50;;;14.40;;
24259;SDS011;12384;48.112;18.418;2023-05-10T04:22:41;15.27;;;14.27;;
24259;SDS011;12384;48.112;18.418;2023-05-10T04:25:11;14.53;;;13.63;;
24259;SDS011;12384;48.112;18.418;2023-05-10T04:27:39;14.40;;;13.40;;
24259;SDS011;12384;48.112;18.418;2023-05-10T04:30:08;15.40;;;14.33;;
24259;SDS011;12384;48.112;18.418;2023-05-10T04:32:37;14.67;;;13.67;;
24259;SDS011;12384;48.112;18.418;2023-05-10T04:35:06;14.80;;;13.70;;
24259;SDS011;12384;48.112;18.418;2023-05-10T04:37:36;14.37;;;13.37;;
24259;SDS011;12384;48.112;18.418;2023-05-10T04:40:05;15.00;;;13.90;;
24259;SDS011;12384;48.112;18.418;2023-05-10T04:42:35;13.77;;;12.87;;
24259;SDS011;12384;48.112;18.418;2023-05-10T04:45:04;14.77;;;13.73;;
24259;SDS011;12384;48.112;18.418;2023-05-10T04:47:33;14.60;;;13.60;;
24259;SDS011;12384;48.112;18.418;2023-05-10T04:50:04;14.50;;;13.50;;
24259;SDS011;12384;48.112;18.418;2023-05-10T04:52:33;14.90;;;13.80;;
24259;SDS011;12384;48.112;18.418;2023-05-10T04:55:01;13.77;;;12.77;;
24259;SDS011;12384;48.112;18.418;2023-05-10T04:57:30;14.27;;;13.37;;
24259;SDS011;12384;48.112;18.418;2023-05-10T05:00:00;13.83;;;12.83;;
24259;SDS011;12384;48.112;18.418;2023-05-10T05:02:29;14.70;;;13.43;;
24259;SDS011;12384;48.112;18.418;2023-05-10T05:04:58;13.80;;;12.80;;
24259;SDS011;12384;48.112;18.418;2023-05-10T05:07:26;13.67;;;12.77;;
24259;SDS011;12384;48.112;18.418;2023-05-10T05:10:00;13.30;;;12.40;;
24259;SDS011;12384;48.112;18.418;2023-05-10T05:12:29;13.67;;;12.70;;
24259;SDS011;12384;48.112;18.418;2023-05-10T05:14:58;13.47;;;12.57;;
24259;SDS011;12384;48.112;18.418;2023-05-10T05:17:28;13.33;;;12.30;;
24259;SDS011;12384;48.112;18.418;2023-05-10T05:19:58;12.50;;;11.70;;
24259;SDS011;12384;48.112;18.418;2023-05-10T05:22:26;13.33;;;12.43;;
24259;SDS011;12384;48.112;18.418;2023-05-10T05:24:54;13.40;;;12.50;;
24259;SDS011;12384;48.112;18.418;2023-05-10T05:27:24;13.43;;;12.53;;
24259;SDS011;12384;48.112;18.418;2023-05-10T05:29:54;12.73;;;11.73;;
24259;SDS011;12384;48.112;18.418;2023-05-10T05:32:23;12.57;;;11.63;;
24259;SDS011;12384;48.112;18.418;2023-05-10T05:34:54;12.70;;;11.90;;
24259;SDS011;12384;48.112;18.418;2023-05-10T05:37:22;11.87;;;11.07;;
24259;SDS011;12384;48.112;18.418;2023-05-10T05:39:51;11.77;;;10.87;;
24259;SDS011;12384;48.112;18.418;2023-05-10T05:42:21;12.30;;;11.50;;
24259;SDS011;12384;48.112;18.418;2023-05-10T05:44:49;12.10;;;11.30;;
24259;SDS011;12384;48.112;18.418;2023-05-10T05:47:18;12.17;;;11.37;;
24259;SDS011;12384;48.112;18.418;2023-05-10T05:49:46;11.47;;;10.70;;
24259;SDS011;12384;48.112;18.418;2023-05-10T05:52:16;12.00;;;11.10;;
24259;SDS011;12384;48.112;18.418;2023-05-10T05:54:44;11.70;;;11.00;;
24259;SDS011;12384;48.112;18.418;2023-05-10T05:57:13;11.30;;;10.40;;
24259;SDS011;12384;48.112;18.418;2023-05-10T05:59:41;11.53;;;10.77;;
24259;SDS011;12384;48.112;18.418;2023-05-10T06:02:10;10.97;;;10.27;;
24259;SDS011;12384;48.112;18.418;2023-05-10T06:04:39;11.10;;;10.30;;
24259;SDS011;12384;48.112;18.418;2023-05-10T06:07:10;11.20;;;10.50;;
24259;SDS011;12384;48.112;18.418;2023-05-10T06:09:40;11.00;;;10.20;;
24259;SDS011;12384;48.112;18.418;2023-05-10T06:12:08;11.47;;;10.67;;
24259;SDS011;12384;48.112;18.418;2023-05-10T06:14:38;10.47;;;9.87;;
24259;SDS011;12384;48.112;18.418;2023-05-10T06:17:06;10.27;;;9.57;;
24259;SDS011;12384;48.112;18.418;2023-05-10T06:19:34;10.13;;;9.43;;
24259;SDS011;12384;48.112;18.418;2023-05-10T06:22:03;10.57;;;9.97;;
24259;SDS011;12384;48.112;18.418;2023-05-10T06:24:31;11.10;;;10.20;;
24259;SDS011;12384;48.112;18.418;2023-05-10T06:27:01;10.47;;;9.77;;
24259;SDS011;12384;48.112;18.418;2023-05-10T06:29:30;10.90;;;10.30;;
24259;SDS011;12384;48.112;18.418;2023-05-10T06:31:59;11.30;;;10.50;;
24259;SDS011;12384;48.112;18.418;2023-05-10T06:34:27;11.57;;;10.77;;
24259;SDS011;12384;48.112;18.418;2023-05-10T06:36:56;10.97;;;10.27;;
24259;SDS011;12384;48.112;18.418;2023-05-10T06:39:24;10.83;;;10.13;;
24259;SDS011;12384;48.112;18.418;2023-05-10T06:41:53;11.07;;;10.37;;
24259;SDS011;12384;48.112;18.418;2023-05-10T06:44:23;10.80;;;10.10;;
24259;SDS011;12384;48.112;18.418;2023-05-10T06:46:51;11.00;;;10.30;;
24259;SDS011;12384;48.112;18.418;2023-05-10T06:49:22;11.53;;;10.83;;
24259;SDS011;12384;48.112;18.418;2023-05-10T06:51:50;11.17;;;10.47;;
24259;SDS011;12384;48.112;18.418;2023-05-10T06:54:19;11.70;;;11.00;;
24259;SDS011;12384;48.112;18.418;2023-05-10T06:56:47;10.47;;;9.70;;
24259;SDS011;12384;48.112;18.418;2023-05-10T06:59:15;10.23;;;9.50;;
24259;SDS011;12384;48.112;18.418;2023-05-10T07:01:47;9.87;;;9.27;;
24259;SDS011;12384;48.112;18.418;2023-05-10T07:04:15;10.07;;;9.47;;
24259;SDS011;12384;48.112;18.418;2023-05-10T07:06:44;10.17;;;9.47;;
24259;SDS011;12384;48.112;18.418;2023-05-10T07:09:13;10.63;;;10.00;;
24259;SDS011;12384;48.112;18.418;2023-05-10T07:11:41;10.63;;;9.83;;
24259;SDS011;12384;48.112;18.418;2023-05-10T07:14:09;10.63;;;9.93;;
24259;SDS011;12384;48.112;18.418;2023-05-10T07:16:38;10.33;;;9.53;;
24259;SDS011;12384;48.112;18.418;2023-05-10T07:19:08;11.13;;;10.10;;
24259;SDS011;12384;48.112;18.418;2023-05-10T07:21:36;11.20;;;10.50;;
24259;SDS011;12384;48.112;18.418;2023-05-10T07:24:06;10.10;;;9.50;;
24259;SDS011;12384;48.112;18.418;2023-05-10T07:26:35;10.80;;;10.10;;
24259;SDS011;12384;48.112;18.418;2023-05-10T07:29:03;10.40;;;9.80;;
24259;SDS011;12384;48.112;18.418;2023-05-10T07:31:32;9.80;;;9.20;;
24259;SDS011;12384;48.112;18.418;2023-05-10T07:34:00;9.97;;;9.17;;
24259;SDS011;12384;48.112;18.418;2023-05-10T07:36:30;10.57;;;9.88;;
24259;SDS011;12384;48.112;18.418;2023-05-10T07:38:59;10.60;;;9.73;;
24259;SDS011;12384;48.112;18.418;2023-05-10T07:41:27;10.67;;;9.97;;
24259;SDS011;12384;48.112;18.418;2023-05-10T07:43:56;10.77;;;10.07;;
24259;SDS011;12384;48.112;18.418;2023-05-10T07:46:25;11.70;;;10.90;;
24259;SDS011;12384;48.112;18.418;2023-05-10T07:48:54;11.63;;;10.83;;
24259;SDS011;12384;48.112;18.418;2023-05-10T07:51:22;12.13;;;11.33;;
24259;SDS011;12384;48.112;18.418;2023-05-10T07:53:52;11.50;;;10.80;;
24259;SDS011;12384;48.112;18.418;2023-05-10T07:56:21;12.23;;;11.43;;
24259;SDS011;12384;48.112;18.418;2023-05-10T07:58:53;11.53;;;10.83;;
24259;SDS011;12384;48.112;18.418;2023-05-10T08:01:22;11.57;;;10.80;;
24259;SDS011;12384;48.112;18.418;2023-05-10T08:03:51;12.40;;;11.50;;
24259;SDS011;12384;48.112;18.418;2023-05-10T08:06:20;12.10;;;11.20;;
24259;SDS011;12384;48.112;18.418;2023-05-10T08:08:48;11.40;;;10.70;;
24259;SDS011;12384;48.112;18.418;2023-05-10T08:11:19;11.63;;;10.87;;
24259;SDS011;12384;48.112;18.418;2023-05-10T08:13:49;11.10;;;10.20;;
24259;SDS011;12384;48.112;18.418;2023-05-10T08:16:18;12.07;;;11.27;;
24259;SDS011;12384;48.112;18.418;2023-05-10T08:18:47;10.40;;;9.80;;
24259;SDS011;12384;48.112;18.418;2023-05-10T08:21:17;10.20;;;9.60;;
24259;SDS011;12384;48.112;18.418;2023-05-10T08:23:45;11.00;;;10.30;;
24259;SDS011;12384;48.112;18.418;2023-05-10T08:26:14;10.27;;;9.67;;
24259;SDS011;12384;48.112;18.418;2023-05-10T08:28:44;10.70;;;9.80;;
24259;SDS011;12384;48.112;18.418;2023-05-10T08:31:12;10.77;;;10.00;;
24259;SDS011;12384;48.112;18.418;2023-05-10T08:33:40;11.50;;;10.60;;
24259;SDS011;12384;48.112;18.418;2023-05-10T08:36:10;10.00;;;9.40;;
24259;SDS011;12384;48.112;18.418;2023-05-10T08:38:40;10.60;;;9.90;;
24259;SDS011;12384;48.112;18.418;2023-05-10T08:41:09;10.63;;;9.93;;
24259;SDS011;12384;48.112;18.418;2023-05-10T08:43:38;10.73;;;10.00;;
24259;SDS011;12384;48.112;18.418;2023-05-10T08:46:09;10.40;;;9.70;;
24259;SDS011;12384;48.112;18.418;2023-05-10T08:48:38;10.07;;;9.40;;
24259;SDS011;12384;48.112;18.418;2023-05-10T08:51:07;10.83;;;10.10;;
24259;SDS011;12384;48.112;18.418;2023-05-10T08:53:37;11.07;;;10.37;;
24259;SDS011;12384;48.112;18.418;2023-05-10T08:56:06;11.73;;;10.33;;
24259;SDS011;12384;48.112;18.418;2023-05-10T08:58:36;11.40;;;10.63;;
24259;SDS011;12384;48.112;18.418;2023-05-10T09:01:05;11.07;;;10.37;;
24259;SDS011;12384;48.112;18.418;2023-05-10T09:03:35;12.90;;;12.00;;
24259;SDS011;12384;48.112;18.418;2023-05-10T09:06:06;11.80;;;10.83;;
24259;SDS011;12384;48.112;18.418;2023-05-10T09:08:35;12.07;;;11.37;;
24259;SDS011;12384;48.112;18.418;2023-05-10T09:11:05;11.77;;;11.00;;
24259;SDS011;12384;48.112;18.418;2023-05-10T09:13:34;13.00;;;12.00;;
24259;SDS011;12384;48.112;18.418;2023-05-10T09:16:04;10.80;;;10.00;;
24259;SDS011;12384;48.112;18.418;2023-05-10T09:18:49;10.93;;;10.10;;
24259;SDS011;12384;48.112;18.418;2023-05-10T09:21:18;11.13;;;10.43;;
24259;SDS011;12384;48.112;18.418;2023-05-10T09:23:47;11.17;;;10.47;;
24259;SDS011;12384;48.112;18.418;2023-05-10T09:26:17;10.47;;;9.87;;
24259;SDS011;12384;48.112;18.418;2023-05-10T09:28:50;10.40;;;9.80;;
24259;SDS011;12384;48.112;18.418;2023-05-10T09:31:20;10.53;;;9.80;;
24259;SDS011;12384;48.112;18.418;2023-05-10T09:33:50;11.10;;;10.40;;
24259;SDS011;12384;48.112;18.418;2023-05-10T09:36:19;10.90;;;10.30;;
24259;SDS011;12384;48.112;18.418;2023-05-10T09:38:48;9.87;;;9.27;;
24259;SDS011;12384;48.112;18.418;2023-05-10T09:41:18;10.53;;;9.73;;
24259;SDS011;12384;48.112;18.418;2023-05-10T09:43:48;10.23;;;9.63;;
24259;SDS011;12384;48.112;18.418;2023-05-10T09:46:17;10.73;;;10.03;;
24259;SDS011;12384;48.112;18.418;2023-05-10T09:48:46;10.50;;;9.80;;
24259;SDS011;12384;48.112;18.418;2023-05-10T09:51:20;10.60;;;9.90;;
24259;SDS011;12384;48.112;18.418;2023-05-10T09:53:49;10.50;;;9.90;;
24259;SDS011;12384;48.112;18.418;2023-05-10T09:56:37;10.50;;;9.80;;
24259;SDS011;12384;48.112;18.418;2023-05-10T09:59:09;10.50;;;9.90;;
24259;SDS011;12384;48.112;18.418;2023-05-10T10:01:39;10.13;;;9.43;;
24259;SDS011;12384;48.112;18.418;2023-05-10T10:04:09;10.07;;;9.47;;
24259;SDS011;12384;48.112;18.418;2023-05-10T10:06:39;10.30;;;9.70;;
24259;SDS011;12384;48.112;18.418;2023-05-10T10:09:08;11.40;;;10.70;;
24259;SDS011;12384;48.112;18.418;2023-05-10T10:11:37;10.00;;;9.33;;
24259;SDS011;12384;48.112;18.418;2023-05-10T10:14:07;10.40;;;9.70;;
24259;SDS011;12384;48.112;18.418;2023-05-10T10:16:36;10.00;;;9.40;;
24259;SDS011;12384;48.112;18.418;2023-05-10T10:19:21;10.10;;;9.40;;
24259;SDS011;12384;48.112;18.418;2023-05-10T10:21:51;9.83;;;9.13;;
24259;SDS011;12384;48.112;18.418;2023-05-10T10:24:19;9.90;;;9.30;;
24259;SDS011;12384;48.112;18.418;2023-05-10T10:26:48;9.53;;;8.93;;
24259;SDS011;12384;48.112;18.418;2023-05-10T10:29:21;9.37;;;8.77;;
24259;SDS011;12384;48.112;18.418;2023-05-10T10:31:55;9.83;;;9.23;;
24259;SDS011;12384;48.112;18.418;2023-05-10T10:34:31;9.50;;;9.00;;
24259;SDS011;12384;48.112;18.418;2023-05-10T10:37:04;8.90;;;8.40;;
24259;SDS011;12384;48.112;18.418;2023-05-10T10:39:33;9.68;;;9.15;;
24259;SDS011;12384;48.112;18.418;2023-05-10T10:42:03;9.40;;;8.80;;
24259;SDS011;12384;48.112;18.418;2023-05-10T10:44:33;10.13;;;9.37;;
24259;SDS011;12384;48.112;18.418;2023-05-10T10:47:06;9.55;;;8.85;;
24259;SDS011;12384;48.112;18.418;2023-05-10T10:50:05;9.90;;;9.30;;
24259;SDS011;12384;48.112;18.418;2023-05-10T10:52:36;9.63;;;9.10;;
24259;SDS011;12384;48.112;18.418;2023-05-10T10:55:06;10.23;;;9.67;;
24259;SDS011;12384;48.112;18.418;2023-05-10T10:57:48;8.70;;;8.10;;
24259;SDS011;12384;48.112;18.418;2023-05-10T11:00:20;9.32;;;8.52;;
24259;SDS011;12384;48.112;18.418;2023-05-10T11:02:53;9.18;;;8.68;;
24259;SDS011;12384;48.112;18.418;2023-05-10T11:05:26;9.40;;;8.67;;
24259;SDS011;12384;48.112;18.418;2023-05-10T11:08:11;9.30;;;8.80;;
24259;SDS011;12384;48.112;18.418;2023-05-10T11:10:51;9.30;;;8.70;;
24259;SDS011;12384;48.112;18.418;2023-05-10T11:13:28;8.47;;;7.87;;
24259;SDS011;12384;48.112;18.418;2023-05-10T11:15:57;9.23;;;8.73;;
24259;SDS011;12384;48.112;18.418;2023-05-10T11:18:28;10.07;;;9.47;;
24259;SDS011;12384;48.112;18.418;2023-05-10T11:20:58;9.63;;;9.03;;
24259;SDS011;12384;48.112;18.418;2023-05-10T11:23:31;9.23;;;8.73;;
24259;SDS011;12384;48.112;18.418;2023-05-10T11:26:00;8.73;;;8.23;;
24259;SDS011;12384;48.112;18.418;2023-05-10T11:28:29;8.50;;;8.00;;
24259;SDS011;12384;48.112;18.418;2023-05-10T11:30:57;8.95;;;8.45;;
24259;SDS011;12384;48.112;18.418;2023-05-10T11:33:26;9.68;;;9.07;;
24259;SDS011;12384;48.112;18.418;2023-05-10T11:35:55;8.25;;;7.80;;
24259;SDS011;12384;48.112;18.418;2023-05-10T11:38:23;9.43;;;8.93;;
24259;SDS011;12384;48.112;18.418;2023-05-10T11:40:53;9.32;;;8.82;;
24259;SDS011;12384;48.112;18.418;2023-05-10T11:43:23;9.60;;;9.00;;
24259;SDS011;12384;48.112;18.418;2023-05-10T11:45:56;9.10;;;8.52;;
24259;SDS011;12384;48.112;18.418;2023-05-10T11:48:25;8.63;;;8.17;;
24259;SDS011;12384;48.112;18.418;2023-05-10T11:50:54;9.45;;;8.95;;
24259;SDS011;12384;48.112;18.418;2023-05-10T11:53:25;9.73;;;9.05;;
24259;SDS011;12384;48.112;18.418;2023-05-10T11:55:58;8.85;;;8.20;;
24259;SDS011;12384;48.112;18.418;2023-05-10T11:58:31;9.00;;;8.45;;
24259;SDS011;12384;48.112;18.418;2023-05-10T12:00:59;9.23;;;8.60;;
24259;SDS011;12384;48.112;18.418;2023-05-10T12:03:29;8.70;;;8.00;;
24259;SDS011;12384;48.112;18.418;2023-05-10T12:05:59;9.05;;;8.45;;
24259;SDS011;12384;48.112;18.418;2023-05-10T12:08:29;9.00;;;8.50;;
24259;SDS011;12384;48.112;18.418;2023-05-10T12:11:06;10.07;;;9.55;;
24259;SDS011;12384;48.112;18.418;2023-05-10T12:13:37;9.50;;;8.88;;
24259;SDS011;12384;48.112;18.418;2023-05-10T12:16:13;9.00;;;8.43;;
24259;SDS011;12384;48.112;18.418;2023-05-10T12:18:43;8.93;;;8.27;;
24259;SDS011;12384;48.112;18.418;2023-05-10T12:21:12;9.10;;;8.57;;
24259;SDS011;12384;48.112;18.418;2023-05-10T12:23:41;9.17;;;8.63;;
24259;SDS011;12384;48.112;18.418;2023-05-10T12:26:10;8.90;;;8.40;;
24259;SDS011;12384;48.112;18.418;2023-05-10T12:28:39;8.20;;;7.50;;
24259;SDS011;12384;48.112;18.418;2023-05-10T12:31:07;8.55;;;8.15;;
24259;SDS011;12384;48.112;18.418;2023-05-10T12:33:37;8.68;;;8.27;;
24259;SDS011;12384;48.112;18.418;2023-05-10T12:36:08;9.13;;;8.63;;
24259;SDS011;12384;48.112;18.418;2023-05-10T12:38:38;9.23;;;8.63;;
24259;SDS011;12384;48.112;18.418;2023-05-10T12:41:11;9.45;;;8.95;;
24259;SDS011;12384;48.112;18.418;2023-05-10T12:43:41;10.43;;;9.93;;
24259;SDS011;12384;48.112;18.418;2023-05-10T12:46:10;9.30;;;8.70;;
24259;SDS011;12384;48.112;18.418;2023-05-10T12:48:40;10.20;;;9.60;;
24259;SDS011;12384;48.112;18.418;2023-05-10T12:51:09;9.20;;;8.70;;
24259;SDS011;12384;48.112;18.418;2023-05-10T12:53:39;9.35;;;8.85;;
24259;SDS011;12384;48.112;18.418;2023-05-10T12:56:12;9.23;;;8.73;;
24259;SDS011;12384;48.112;18.418;2023-05-10T12:58:41;9.63;;;9.00;;
24259;SDS011;12384;48.112;18.418;2023-05-10T13:01:14;9.35;;;8.85;;
24259;SDS011;12384;48.112;18.418;2023-05-10T13:03:43;9.15;;;8.65;;
24259;SDS011;12384;48.112;18.418;2023-05-10T13:06:12;9.38;;;8.85;;
24259;SDS011;12384;48.112;18.418;2023-05-10T13:08:41;9.55;;;9.00;;
24259;SDS011;12384;48.112;18.418;2023-05-10T13:11:09;10.40;;;9.70;;
24259;SDS011;12384;48.112;18.418;2023-05-10T13:13:39;10.38;;;9.88;;
24259;SDS011;12384;48.112;18.418;2023-05-10T13:16:07;9.70;;;9.20;;
24259;SDS011;12384;48.112;18.418;2023-05-10T13:18:36;10.00;;;9.45;;
24259;SDS011;12384;48.112;18.418;2023-05-10T13:21:04;10.32;;;9.75;;
24259;SDS011;12384;48.112;18.418;2023-05-10T13:23:34;9.60;;;9.10;;
24259;SDS011;12384;48.112;18.418;2023-05-10T13:26:02;9.10;;;8.60;;
24259;SDS011;12384;48.112;18.418;2023-05-10T13:28:30;10.30;;;9.77;;
24259;SDS011;12384;48.112;18.418;2023-05-10T13:31:00;10.18;;;9.68;;
24259;SDS011;12384;48.112;18.418;2023-05-10T13:33:29;10.68;;;10.05;;
24259;SDS011;12384;48.112;18.418;2023-05-10T13:35:57;10.20;;;9.50;;
24259;SDS011;12384;48.112;18.418;2023-05-10T13:38:25;9.63;;;9.02;;
24259;SDS011;12384;48.112;18.418;2023-05-10T13:40:54;9.73;;;9.10;;
24259;SDS011;12384;48.112;18.418;2023-05-10T13:43:23;10.52;;;9.93;;
24259;SDS011;12384;48.112;18.418;2023-05-10T13:45:51;11.63;;;10.73;;
24259;SDS011;12384;48.112;18.418;2023-05-10T13:48:21;13.57;;;11.40;;
24259;SDS011;12384;48.112;18.418;2023-05-10T13:50:50;10.73;;;9.95;;
24259;SDS011;12384;48.112;18.418;2023-05-10T13:53:18;9.82;;;9.00;;
24259;SDS011;12384;48.112;18.418;2023-05-10T13:55:47;9.65;;;9.05;;
24259;SDS011;12384;48.112;18.418;2023-05-10T13:58:16;11.02;;;10.43;;
24259;SDS011;12384;48.112;18.418;2023-05-10T14:00:44;10.00;;;9.40;;
24259;SDS011;12384;48.112;18.418;2023-05-10T14:03:12;11.00;;;10.40;;
24259;SDS011;12384;48.112;18.418;2023-05-10T14:05:42;9.73;;;9.20;;
24259;SDS011;12384;48.112;18.418;2023-05-10T14:08:11;9.97;;;9.47;;
24259;SDS011;12384;48.112;18.418;2023-05-10T14:10:41;10.10;;;9.50;;
24259;SDS011;12384;48.112;18.418;2023-05-10T14:13:09;10.27;;;9.60;;
24259;SDS011;12384;48.112;18.418;2023-05-10T14:15:38;10.57;;;9.97;;
24259;SDS011;12384;48.112;18.418;2023-05-10T14:18:07;9.40;;;8.90;;
24259;SDS011;12384;48.112;18.418;2023-05-10T14:20:35;9.97;;;9.47;;
24259;SDS011;12384;48.112;18.418;2023-05-10T14:23:05;10.13;;;9.53;;
24259;SDS011;12384;48.112;18.418;2023-05-10T14:25:37;10.03;;;9.33;;
24259;SDS011;12384;48.112;18.418;2023-05-10T14:28:05;10.00;;;9.50;;
24259;SDS011;12384;48.112;18.418;2023-05-10T14:30:34;10.30;;;9.70;;
24259;SDS011;12384;48.112;18.418;2023-05-10T14:33:03;10.73;;;10.17;;
24259;SDS011;12384;48.112;18.418;2023-05-10T14:35:31;10.70;;;9.77;;
24259;SDS011;12384;48.112;18.418;2023-05-10T14:38:00;9.90;;;9.40;;